Time;durP1;ratioP1;P1;durP2;ratioP2;P2;SDS_P1;SDS_P2;PMS_P1;PMS_P2;Temp;Humidity;BMP_temperature;BMP_pressure;BME280_temperature;BME280_humidity;BME280_pressure;Samples;Min_cycle;Max_cycle;Signal;HPM_P1;HPM_P2
2021/01/28 00:00:54;;;;;;;40.30;21.93;;;;;;;;;;5014999;28;20205;-89
2021/01/28 00:03:19;;;;;;;42.20;21.80;;;;;;;;;;5015893;28;20266;-89
2021/01/28 00:05:45;;;;;;;43.50;24.73;;;;;;;;;;5033117;28;20252;-89
2021/01/28 00:08:12;;;;;;;62.73;32.13;;;;;;;;;;5048705;28;20256;-89
2021/01/28 00:10:38;;;;;;;68.47;32.23;;;;;;;;;;5033615;28;20235;-89
2021/01/28 00:13:05;;;;;;;65.20;31.20;;;;;;;;;;5015177;28;20200;-89
2021/01/28 00:15:32;;;;;;;55.90;28.30;;;;;;;;;;5033384;28;20199;-89
2021/01/28 00:17:58;;;;;;;45.17;24.57;;;;;;;;;;5032866;28;20180;-89
2021/01/28 00:20:24;;;;;;;58.43;29.37;;;;;;;;;;5033120;28;20263;-89
2021/01/28 00:22:49;;;;;;;180.93;59.43;;;;;;;;;;5015437;28;20256;-89
2021/01/28 00:25:16;;;;;;;192.37;57.47;;;;;;;;;;5014795;28;20228;-89
2021/01/28 00:27:43;;;;;;;148.00;50.77;;;;;;;;;;5033004;28;20173;-88
2021/01/28 00:30:09;;;;;;;100.60;38.97;;;;;;;;;;5015288;28;20176;-89
2021/01/28 00:32:35;;;;;;;62.43;31.77;;;;;;;;;;5032668;28;20645;-89
2021/01/28 00:35:01;;;;;;;54.67;29.93;;;;;;;;;;5014977;28;20283;-90
2021/01/28 00:37:28;;;;;;;53.03;29.50;;;;;;;;;;5033067;28;20179;-90
2021/01/28 00:39:53;;;;;;;48.83;27.93;;;;;;;;;;5032373;28;20173;-90
2021/01/28 00:42:19;;;;;;;54.90;28.50;;;;;;;;;;5032391;28;20216;-90
2021/01/28 00:44:46;;;;;;;52.43;28.83;;;;;;;;;;5014413;28;20315;-90
2021/01/28 00:47:12;;;;;;;56.83;28.67;;;;;;;;;;5032868;28;20179;-89
2021/01/28 00:49:38;;;;;;;52.60;28.93;;;;;;;;;;5014613;28;20621;-90
2021/01/28 00:52:03;;;;;;;51.20;28.70;;;;;;;;;;4998310;28;20195;-90
2021/01/28 00:54:28;;;;;;;45.63;27.60;;;;;;;;;;5014633;28;20181;-90
2021/01/28 00:56:53;;;;;;;43.17;26.30;;;;;;;;;;5032298;28;20204;-89
2021/01/28 00:59:19;;;;;;;48.00;26.70;;;;;;;;;;5032030;28;20195;-90
2021/01/28 01:01:44;;;;;;;41.83;24.90;;;;;;;;;;4998095;28;20299;-88
2021/01/28 01:04:09;;;;;;;46.00;26.93;;;;;;;;;;5031590;28;20172;-89
2021/01/28 01:06:35;;;;;;;41.80;25.83;;;;;;;;;;5031519;28;20184;-89
2021/01/28 01:09:00;;;;;;;49.93;29.17;;;;;;;;;;5032411;28;20629;-88
2021/01/28 01:11:25;;;;;;;48.40;27.30;;;;;;;;;;5032078;28;20192;-90
2021/01/28 01:13:51;;;;;;;54.53;28.73;;;;;;;;;;5032775;28;20168;-90
2021/01/28 01:16:19;;;;;;;47.40;25.77;;;;;;;;;;5032251;28;20255;-89
2021/01/28 01:18:44;;;;;;;48.23;27.50;;;;;;;;;;5033068;28;20708;-88
2021/01/28 01:21:10;;;;;;;44.67;26.77;;;;;;;;;;5032423;28;20287;-90
2021/01/28 01:23:35;;;;;;;49.47;27.83;;;;;;;;;;5032469;28;20224;-90
2021/01/28 01:26:00;;;;;;;51.17;27.83;;;;;;;;;;5032924;28;20222;-90
2021/01/28 01:28:26;;;;;;;50.73;29.90;;;;;;;;;;5032795;28;20169;-89
2021/01/28 01:30:52;;;;;;;40.33;24.40;;;;;;;;;;5033423;28;20192;-89
2021/01/28 01:33:17;;;;;;;43.43;24.27;;;;;;;;;;5033065;28;20173;-89
2021/01/28 01:35:43;;;;;;;41.23;23.57;;;;;;;;;;5033483;28;20617;-88
2021/01/28 01:38:08;;;;;;;40.47;23.77;;;;;;;;;;5033173;28;20625;-89
2021/01/28 01:40:35;;;;;;;41.40;23.37;;;;;;;;;;5032706;28;20555;-89
2021/01/28 01:43:02;;;;;;;35.13;22.67;;;;;;;;;;5032966;28;20641;-89
2021/01/28 01:45:33;;;;;;;36.50;22.30;;;;;;;;;;5014836;28;20180;-90
2021/01/28 01:48:07;;;;;;;34.47;21.20;;;;;;;;;;5032667;28;20176;-89
2021/01/28 01:50:36;;;;;;;37.53;21.87;;;;;;;;;;5033773;28;20163;-89
2021/01/28 01:53:03;;;;;;;39.10;22.63;;;;;;;;;;5018948;28;20246;-90
2021/01/28 01:55:30;;;;;;;37.47;21.53;;;;;;;;;;5036823;28;20164;-89
2021/01/28 01:57:56;;;;;;;34.33;20.63;;;;;;;;;;5036693;28;20200;-90
2021/01/28 02:00:22;;;;;;;37.03;22.17;;;;;;;;;;5036448;28;20207;-87
2021/01/28 02:02:50;;;;;;;35.97;21.53;;;;;;;;;;5036340;28;20203;-89
2021/01/28 02:05:17;;;;;;;40.60;21.73;;;;;;;;;;5051992;28;20168;-89
2021/01/28 02:07:42;;;;;;;39.33;21.67;;;;;;;;;;5036698;28;20168;-88
2021/01/28 02:10:10;;;;;;;39.10;21.03;;;;;;;;;;5036056;28;20314;-89
2021/01/28 02:12:36;;;;;;;39.03;21.07;;;;;;;;;;5035887;28;20589;-89
2021/01/28 02:15:02;;;;;;;36.57;21.47;;;;;;;;;;5036313;28;20217;-88
2021/01/28 02:17:28;;;;;;;40.17;23.07;;;;;;;;;;5035982;28;20504;-88
2021/01/28 02:19:56;;;;;;;42.97;24.97;;;;;;;;;;5036160;28;20168;-89
2021/01/28 02:22:30;;;;;;;48.63;27.07;;;;;;;;;;5018309;28;20686;-90
2021/01/28 02:25:16;;;;;;;49.77;25.13;;;;;;;;;;5036027;28;20227;-89
2021/01/28 02:27:42;;;;;;;40.73;23.87;;;;;;;;;;5020691;28;20648;-89
2021/01/28 02:30:07;;;;;;;38.67;22.43;;;;;;;;;;5035667;28;20207;-90
2021/01/28 02:32:33;;;;;;;43.67;23.67;;;;;;;;;;5035999;28;20176;-90
2021/01/28 02:34:58;;;;;;;39.43;23.43;;;;;;;;;;5036252;28;20189;-90
2021/01/28 02:37:23;;;;;;;34.60;19.87;;;;;;;;;;5018061;28;20173;-90
2021/01/28 02:39:49;;;;;;;33.47;19.83;;;;;;;;;;5036095;28;20176;-90
2021/01/28 02:42:23;;;;;;;36.13;21.03;;;;;;;;;;5035651;28;20208;-90
2021/01/28 02:44:49;;;;;;;36.07;22.30;;;;;;;;;;5018261;28;20512;-90
2021/01/28 02:47:14;;;;;;;36.10;20.43;;;;;;;;;;5035994;28;20192;-90
2021/01/28 02:49:40;;;;;;;38.60;21.50;;;;;;;;;;5035485;28;20187;-88
2021/01/28 02:52:05;;;;;;;67.80;34.40;;;;;;;;;;5050920;28;20543;-88
2021/01/28 02:54:37;;;;;;;54.97;29.53;;;;;;;;;;5035272;28;20195;-90
2021/01/28 02:57:02;;;;;;;37.13;23.47;;;;;;;;;;5035554;28;20190;-90
2021/01/28 02:59:28;;;;;;;58.00;31.20;;;;;;;;;;5035394;28;20226;-90
2021/01/28 03:01:58;;;;;;;46.63;25.90;;;;;;;;;;5035309;28;20204;-89
2021/01/28 03:04:23;;;;;;;41.23;23.03;;;;;;;;;;5035484;28;20172;-89
2021/01/28 03:06:48;;;;;;;46.63;27.60;;;;;;;;;;5035828;28;20180;-89
2021/01/28 03:09:14;;;;;;;46.90;26.40;;;;;;;;;;5017414;28;20263;-89
2021/01/28 03:11:39;;;;;;;44.80;25.57;;;;;;;;;;5017382;28;20291;-89
2021/01/28 03:14:04;;;;;;;45.60;25.33;;;;;;;;;;5035146;28;20169;-89
2021/01/28 03:16:29;;;;;;;51.53;27.50;;;;;;;;;;5034836;28;20574;-89
2021/01/28 03:18:55;;;;;;;32.80;19.10;;;;;;;;;;5017372;28;20578;-88
2021/01/28 03:21:20;;;;;;;31.47;18.50;;;;;;;;;;5035004;28;20204;-89
2021/01/28 03:23:46;;;;;;;32.77;19.37;;;;;;;;;;5017154;28;20294;-89
2021/01/28 03:26:11;;;;;;;40.67;22.63;;;;;;;;;;5035022;28;20196;-90
2021/01/28 03:28:36;;;;;;;35.37;19.70;;;;;;;;;;5017245;28;20628;-90
2021/01/28 03:31:02;;;;;;;45.50;25.60;;;;;;;;;;5017159;28;20191;-90
2021/01/28 03:33:28;;;;;;;40.00;21.93;;;;;;;;;;5034915;28;20191;-88
2021/01/28 03:35:53;;;;;;;37.40;23.10;;;;;;;;;;5017320;28;20288;-90
2021/01/28 03:38:18;;;;;;;38.17;22.90;;;;;;;;;;5016932;28;20260;-90
2021/01/28 03:40:44;;;;;;;30.73;19.07;;;;;;;;;;5034602;28;20517;-89
2021/01/28 03:43:10;;;;;;;30.57;18.90;;;;;;;;;;5016764;28;20172;-90
2021/01/28 03:45:35;;;;;;;29.80;18.97;;;;;;;;;;5035062;28;20173;-90
2021/01/28 03:48:00;;;;;;;28.93;17.47;;;;;;;;;;5034671;28;20208;-90
2021/01/28 03:50:28;;;;;;;27.97;17.23;;;;;;;;;;5017132;28;20603;-90
2021/01/28 03:52:53;;;;;;;25.83;16.60;;;;;;;;;;5034538;28;20180;-89
2021/01/28 03:55:19;;;;;;;30.80;19.27;;;;;;;;;;5034609;28;20569;-90
2021/01/28 03:57:48;;;;;;;29.33;20.37;;;;;;;;;;5034277;28;20571;-90
2021/01/28 04:00:16;;;;;;;36.47;21.00;;;;;;;;;;5034430;28;20176;-90
2021/01/28 04:02:42;;;;;;;30.57;19.03;;;;;;;;;;5034288;28;20237;-88
2021/01/28 04:05:08;;;;;;;27.27;16.73;;;;;;;;;;5033923;28;20208;-88
2021/01/28 04:07:33;;;;;;;29.37;17.27;;;;;;;;;;5034245;28;20168;-89
2021/01/28 04:09:58;;;;;;;27.37;18.87;;;;;;;;;;5034153;28;20172;-88
2021/01/28 04:12:23;;;;;;;24.83;16.53;;;;;;;;;;5034071;28;20193;-90
2021/01/28 04:14:49;;;;;;;26.27;17.07;;;;;;;;;;5033245;28;20537;-90
2021/01/28 04:17:14;;;;;;;28.77;16.90;;;;;;;;;;5033986;28;20177;-90
2021/01/28 04:19:39;;;;;;;31.97;17.80;;;;;;;;;;5033675;28;20640;-89
2021/01/28 04:22:05;;;;;;;28.57;18.03;;;;;;;;;;5033839;28;20228;-90
2021/01/28 04:24:30;;;;;;;29.10;19.77;;;;;;;;;;5015724;28;20231;-89
2021/01/28 04:26:55;;;;;;;28.27;18.33;;;;;;;;;;5016780;28;20182;-90
2021/01/28 04:29:21;;;;;;;28.20;18.77;;;;;;;;;;5033688;28;20168;-90
2021/01/28 04:31:46;;;;;;;30.77;19.47;;;;;;;;;;5015898;28;20242;-89
2021/01/28 04:34:12;;;;;;;28.17;18.43;;;;;;;;;;5033639;28;20168;-89
2021/01/28 04:36:37;;;;;;;32.90;20.20;;;;;;;;;;5015819;28;20181;-89
2021/01/28 04:39:02;;;;;;;34.80;21.47;;;;;;;;;;5033600;28;20260;-90
2021/01/28 04:41:29;;;;;;;39.63;24.10;;;;;;;;;;5048920;28;20214;-90
2021/01/28 04:43:56;;;;;;;47.83;26.73;;;;;;;;;;5015711;28;20179;-90
2021/01/28 04:46:30;;;;;;;45.47;27.10;;;;;;;;;;5033508;28;20223;-90
2021/01/28 04:48:56;;;;;;;75.27;37.83;;;;;;;;;;5016098;28;20198;-90
2021/01/28 04:51:23;;;;;;;92.03;44.83;;;;;;;;;;5033337;28;20592;-89
2021/01/28 04:53:57;;;;;;;81.67;41.17;;;;;;;;;;5033363;28;20207;-89
2021/01/28 04:56:24;;;;;;;60.67;34.10;;;;;;;;;;5033286;28;20221;-89
2021/01/28 04:58:51;;;;;;;56.13;30.40;;;;;;;;;;5015419;28;20697;-90
2021/01/28 05:01:16;;;;;;;54.77;30.90;;;;;;;;;;5033003;28;20208;-90
2021/01/28 05:03:50;;;;;;;59.47;33.20;;;;;;;;;;5033142;28;20494;-90
2021/01/28 05:06:16;;;;;;;66.87;38.37;;;;;;;;;;5015364;28;20223;-90
2021/01/28 05:08:41;;;;;;;67.77;38.03;;;;;;;;;;5033505;28;20195;-90
2021/01/28 05:11:18;;;;;;;77.07;37.73;;;;;;;;;;5032650;28;20198;-89
2021/01/28 05:13:43;;;;;;;62.70;35.50;;;;;;;;;;5048413;28;20172;-89
2021/01/28 05:16:18;;;;;;;60.93;35.17;;;;;;;;;;5033217;28;20179;-89
2021/01/28 05:18:54;;;;;;;56.83;31.90;;;;;;;;;;5015310;28;20176;-90
2021/01/28 05:21:21;;;;;;;52.30;30.20;;;;;;;;;;5014947;28;20215;-90
2021/01/28 05:23:47;;;;;;;57.33;33.67;;;;;;;;;;5047877;28;20315;-90
2021/01/28 05:26:34;;;;;;;58.70;34.27;;;;;;;;;;5032112;28;20272;-89
2021/01/28 05:29:23;;;;;;;69.13;38.40;;;;;;;;;;5032911;28;20183;-89
2021/01/28 05:31:49;;;;;;;64.60;36.47;;;;;;;;;;5015108;28;20271;-89
2021/01/28 05:34:23;;;;;;;76.53;39.37;;;;;;;;;;5032920;28;20176;-89
2021/01/28 05:36:54;;;;;;;73.83;39.70;;;;;;;;;;5032603;28;20529;-89
2021/01/28 05:39:25;;;;;;;72.73;37.70;;;;;;;;;;5032343;28;20177;-90
2021/01/28 05:41:51;;;;;;;67.63;35.33;;;;;;;;;;5032355;28;20196;-90
2021/01/28 05:44:27;;;;;;;85.80;40.93;;;;;;;;;;5032681;28;20183;-88
2021/01/28 05:47:00;;;;;;;85.87;39.83;;;;;;;;;;5045398;28;20172;-86
2021/01/28 05:49:26;;;;;;;84.73;39.83;;;;;;;;;;5022287;28;20431;-86
2021/01/28 05:51:51;;;;;;;113.77;50.00;;;;;;;;;;5035539;28;20621;-88
2021/01/28 05:54:16;;;;;;;92.23;49.07;;;;;;;;;;5032543;28;20510;-89
2021/01/28 05:56:50;;;;;;;93.20;47.17;;;;;;;;;;5032401;28;20610;-89
2021/01/28 05:59:21;;;;;;;102.50;51.20;;;;;;;;;;5032373;28;20195;-89
2021/01/28 06:01:55;;;;;;;138.70;60.83;;;;;;;;;;5032227;28;20219;-89
2021/01/28 06:04:29;;;;;;;137.03;59.80;;;;;;;;;;5032200;28;20633;-89
2021/01/28 06:06:54;;;;;;;167.97;70.33;;;;;;;;;;5032211;28;20149;-89
2021/01/28 06:09:28;;;;;;;169.77;72.07;;;;;;;;;;5032826;28;20234;-89
2021/01/28 06:12:09;;;;;;;110.20;48.23;;;;;;;;;;5032686;28;20288;-89
2021/01/28 06:14:53;;;;;;;113.03;48.57;;;;;;;;;;5032531;28;20530;-89
2021/01/28 06:17:44;;;;;;;80.30;38.23;;;;;;;;;;5032157;28;20175;-89
2021/01/28 06:20:09;;;;;;;82.43;44.00;;;;;;;;;;5014798;28;20176;-88
2021/01/28 06:22:41;;;;;;;98.17;48.17;;;;;;;;;;5032445;28;20529;-89
2021/01/28 06:25:06;;;;;;;88.63;43.40;;;;;;;;;;5032280;28;20235;-89
2021/01/28 06:27:32;;;;;;;98.00;46.97;;;;;;;;;;5032345;28;20176;-89
2021/01/28 06:30:09;;;;;;;76.90;39.33;;;;;;;;;;5032416;28;20173;-89
2021/01/28 06:32:53;;;;;;;67.53;36.80;;;;;;;;;;5014688;28;20176;-89
2021/01/28 06:35:36;;;;;;;51.33;29.43;;;;;;;;;;5031876;28;20651;-89
2021/01/28 06:38:19;;;;;;;46.80;27.03;;;;;;;;;;5050727;28;20211;-89
2021/01/28 06:40:47;;;;;;;54.03;28.03;;;;;;;;;;5035859;28;20223;-88
2021/01/28 06:43:14;;;;;;;55.47;29.50;;;;;;;;;;5035728;28;20211;-88
2021/01/28 06:45:52;;;;;;;59.80;26.37;;;;;;;;;;5036237;28;20555;-89
2021/01/28 06:48:22;;;;;;;46.67;24.07;;;;;;;;;;5035606;28;20184;-90
2021/01/28 06:50:52;;;;;;;51.10;23.93;;;;;;;;;;5035881;28;20257;-90
2021/01/28 06:53:18;;;;;;;33.10;18.73;;;;;;;;;;5047571;28;20178;-91
2021/01/28 06:55:52;;;;;;;39.17;20.33;;;;;;;;;;5038867;28;20176;-92
2021/01/28 06:58:36;;;;;;;31.67;18.73;;;;;;;;;;5038557;28;20179;-89
2021/01/28 07:01:01;;;;;;;37.13;19.60;;;;;;;;;;5056866;28;20203;-89
2021/01/28 07:03:37;;;;;;;35.00;18.63;;;;;;;;;;5055866;28;20699;-87
2021/01/28 07:06:07;;;;;;;37.13;22.07;;;;;;;;;;5054848;28;20172;-88
2021/01/28 07:08:52;;;;;;;38.50;24.03;;;;;;;;;;5055691;28;20172;-88
2021/01/28 07:11:27;;;;;;;40.13;23.07;;;;;;;;;;5015144;28;20211;-88
2021/01/28 07:13:52;;;;;;;34.63;21.47;;;;;;;;;;5055835;28;20578;-88
2021/01/28 07:16:20;;;;;;;41.30;24.83;;;;;;;;;;5056461;28;20176;-88
2021/01/28 07:18:48;;;;;;;46.07;28.60;;;;;;;;;;5055782;28;20172;-88
2021/01/28 07:21:33;;;;;;;51.97;31.50;;;;;;;;;;5038107;28;20216;-88
2021/01/28 07:23:59;;;;;;;61.10;36.47;;;;;;;;;;5056005;28;20735;-88
2021/01/28 07:26:41;;;;;;;65.00;37.33;;;;;;;;;;5055975;28;20172;-88
2021/01/28 07:29:27;;;;;;;54.60;29.73;;;;;;;;;;5056316;28;20184;-88
2021/01/28 07:31:52;;;;;;;41.40;25.67;;;;;;;;;;5042107;28;20206;-88
2021/01/28 07:34:18;;;;;;;42.83;24.03;;;;;;;;;;5055911;28;20624;-89
2021/01/28 07:36:45;;;;;;;40.87;24.67;;;;;;;;;;5055816;28;20609;-88
2021/01/28 07:39:33;;;;;;;37.83;23.43;;;;;;;;;;5055505;28;20623;-89
2021/01/28 07:42:01;;;;;;;39.47;24.63;;;;;;;;;;5045062;28;20296;-88
2021/01/28 07:44:26;;;;;;;39.20;24.40;;;;;;;;;;5055463;28;20254;-88
2021/01/28 07:46:52;;;;;;;36.57;24.60;;;;;;;;;;5055620;28;20608;-89
2021/01/28 07:49:18;;;;;;;39.53;23.93;;;;;;;;;;5054864;28;20263;-89
2021/01/28 07:51:43;;;;;;;36.37;23.27;;;;;;;;;;5055744;28;20203;-90
2021/01/28 07:54:23;;;;;;;29.77;19.93;;;;;;;;;;5056013;28;20194;-89
2021/01/28 07:56:52;;;;;;;33.10;21.50;;;;;;;;;;5054123;28;20182;-89
2021/01/28 07:59:26;;;;;;;39.80;24.03;;;;;;;;;;5049936;28;20672;-89
2021/01/28 08:01:53;;;;;;;37.23;22.87;;;;;;;;;;5017566;28;20200;-90
2021/01/28 08:04:30;;;;;;;31.50;20.10;;;;;;;;;;5035417;28;20183;-90
2021/01/28 08:06:57;;;;;;;30.30;19.70;;;;;;;;;;5028439;28;20187;-88
2021/01/28 08:09:23;;;;;;;32.47;18.73;;;;;;;;;;5035031;28;20184;-88
2021/01/28 08:11:49;;;;;;;24.63;16.93;;;;;;;;;;5017605;28;20534;-89
2021/01/28 08:14:15;;;;;;;27.53;17.17;;;;;;;;;;5035370;28;20172;-89
2021/01/28 08:16:41;;;;;;;24.60;16.03;;;;;;;;;;5035471;28;20177;-89
2021/01/28 08:19:13;;;;;;;24.17;17.77;;;;;;;;;;5050336;28;20207;-89
2021/01/28 08:21:39;;;;;;;31.77;20.53;;;;;;;;;;5035272;28;20646;-89
2021/01/28 08:24:09;;;;;;;36.57;23.43;;;;;;;;;;5034788;28;20228;-89
2021/01/28 08:26:38;;;;;;;33.63;22.20;;;;;;;;;;5017004;28;20181;-88
2021/01/28 08:29:10;;;;;;;34.53;23.33;;;;;;;;;;5034900;28;20241;-89
2021/01/28 08:31:41;;;;;;;37.20;24.47;;;;;;;;;;5035148;28;20255;-88
2021/01/28 08:34:08;;;;;;;34.87;21.33;;;;;;;;;;5035430;28;20169;-88
2021/01/28 08:36:47;;;;;;;39.33;22.50;;;;;;;;;;5043957;28;20176;-88
2021/01/28 08:39:18;;;;;;;36.77;22.63;;;;;;;;;;5054960;28;20160;-88
2021/01/28 08:41:45;;;;;;;28.97;18.63;;;;;;;;;;5053368;28;20211;-88
2021/01/28 08:44:13;;;;;;;23.03;16.07;;;;;;;;;;5053344;28;20171;-88
2021/01/28 08:46:39;;;;;;;21.87;16.43;;;;;;;;;;5051326;28;20183;-89
2021/01/28 08:49:16;;;;;;;26.13;18.17;;;;;;;;;;5036490;28;20172;-87
2021/01/28 08:51:43;;;;;;;27.73;19.57;;;;;;;;;;5034711;28;20180;-88
2021/01/28 08:54:16;;;;;;;24.63;18.03;;;;;;;;;;5035478;28;20237;-86
2021/01/28 08:56:42;;;;;;;24.30;17.47;;;;;;;;;;5053443;28;20187;-87
2021/01/28 08:59:11;;;;;;;26.97;18.37;;;;;;;;;;5053892;28;20167;-87
2021/01/28 09:01:56;;;;;;;24.47;16.90;;;;;;;;;;5053735;28;20199;-88
2021/01/28 09:04:30;;;;;;;26.20;17.53;;;;;;;;;;5033586;28;20219;-90
2021/01/28 09:06:55;;;;;;;17.70;12.60;;;;;;;;;;5029118;28;20181;-90
2021/01/28 09:09:25;;;;;;;17.90;12.30;;;;;;;;;;5034193;28;20177;-89
2021/01/28 09:11:51;;;;;;;20.83;14.10;;;;;;;;;;5052472;28;20198;-89
2021/01/28 09:14:23;;;;;;;20.83;14.40;;;;;;;;;;5052201;28;20539;-89
2021/01/28 09:16:52;;;;;;;25.93;16.67;;;;;;;;;;5035189;28;20183;-89
2021/01/28 09:19:18;;;;;;;20.47;15.20;;;;;;;;;;5035642;28;20182;-89
2021/01/28 09:21:45;;;;;;;19.13;13.47;;;;;;;;;;5053565;28;20282;-89
2021/01/28 09:24:16;;;;;;;20.93;14.07;;;;;;;;;;5051991;28;20671;-89
2021/01/28 09:26:41;;;;;;;31.47;19.73;;;;;;;;;;5035594;28;20271;-90
2021/01/28 09:29:14;;;;;;;27.97;18.03;;;;;;;;;;5035732;28;20192;-89
2021/01/28 09:31:40;;;;;;;26.57;16.83;;;;;;;;;;5053061;28;20563;-89
2021/01/28 09:34:15;;;;;;;20.97;14.47;;;;;;;;;;5053237;28;20163;-90
2021/01/28 09:36:43;;;;;;;22.70;15.40;;;;;;;;;;5036273;28;20225;-92
2021/01/28 09:39:35;;;;;;;21.33;15.57;;;;;;;;;;5036147;28;20582;-90
2021/01/28 09:42:21;;;;;;;21.23;14.67;;;;;;;;;;5032930;28;20212;-93
2021/01/28 09:44:52;;;;;;;21.73;14.20;;;;;;;;;;5052287;28;20171;-90
2021/01/28 09:47:28;;;;;;;21.83;15.17;;;;;;;;;;5054289;28;20148;-91
2021/01/28 09:49:58;;;;;;;20.53;14.00;;;;;;;;;;5036007;28;20175;-90
2021/01/28 09:52:34;;;;;;;19.43;13.03;;;;;;;;;;5053926;28;20224;-91
2021/01/28 09:55:13;;;;;;;21.70;13.70;;;;;;;;;;5033843;28;20201;-91
2021/01/28 09:57:38;;;;;;;21.63;14.47;;;;;;;;;;5050317;28;20732;-91
2021/01/28 10:00:05;;;;;;;21.67;14.27;;;;;;;;;;5052609;28;20255;-91
2021/01/28 10:02:33;;;;;;;20.17;12.73;;;;;;;;;;5050518;28;20295;-88
2021/01/28 10:05:00;;;;;;;21.97;14.27;;;;;;;;;;5051368;28;20172;-89
2021/01/28 10:07:25;;;;;;;28.93;17.70;;;;;;;;;;5033944;28;20182;-89
2021/01/28 10:09:51;;;;;;;25.10;15.40;;;;;;;;;;5052167;28;20171;-88
2021/01/28 10:12:16;;;;;;;27.63;15.53;;;;;;;;;;5052367;28;20191;-89
2021/01/28 10:14:42;;;;;;;25.73;15.60;;;;;;;;;;5056079;28;20191;-89
2021/01/28 10:17:10;;;;;;;20.63;13.87;;;;;;;;;;5055550;28;20179;-89
2021/01/28 10:19:35;;;;;;;24.70;15.70;;;;;;;;;;5038059;28;20574;-88
2021/01/28 10:22:00;;;;;;;25.90;16.63;;;;;;;;;;5054074;28;20250;-87
2021/01/28 10:24:27;;;;;;;26.73;16.83;;;;;;;;;;5055587;28;20246;-87
2021/01/28 10:26:52;;;;;;;23.13;15.03;;;;;;;;;;5036577;28;20237;-87
2021/01/28 10:29:17;;;;;;;24.70;15.17;;;;;;;;;;5053153;28;21379;-88
2021/01/28 10:31:43;;;;;;;25.80;16.10;;;;;;;;;;5035600;28;20180;-89
2021/01/28 10:34:08;;;;;;;26.50;16.57;;;;;;;;;;5055362;28;20182;-89
2021/01/28 10:36:33;;;;;;;22.00;14.10;;;;;;;;;;5056195;28;20206;-88
2021/01/28 10:38:59;;;;;;;25.43;16.03;;;;;;;;;;5038627;28;20287;-88
2021/01/28 10:41:28;;;;;;;25.10;16.20;;;;;;;;;;5056557;28;20282;-88
2021/01/28 10:43:54;;;;;;;27.03;17.77;;;;;;;;;;5056775;28;20168;-89
2021/01/28 10:46:19;;;;;;;30.20;17.93;;;;;;;;;;5038895;28;20176;-87
2021/01/28 10:48:44;;;;;;;24.67;15.43;;;;;;;;;;5055417;28;20233;-87
2021/01/28 10:51:10;;;;;;;28.20;17.37;;;;;;;;;;5055479;28;20175;-88
2021/01/28 10:53:36;;;;;;;31.07;18.40;;;;;;;;;;5055491;28;20522;-87
2021/01/28 10:56:02;;;;;;;24.87;15.53;;;;;;;;;;5055602;28;20270;-89
2021/01/28 10:58:27;;;;;;;23.70;16.20;;;;;;;;;;5056253;28;20231;-87
2021/01/28 11:00:54;;;;;;;29.80;19.43;;;;;;;;;;5056575;28;20164;-88
2021/01/28 11:03:19;;;;;;;22.73;16.50;;;;;;;;;;5056140;28;20172;-88
2021/01/28 11:05:45;;;;;;;23.73;15.93;;;;;;;;;;5056136;28;20221;-88
2021/01/28 11:08:10;;;;;;;22.90;14.60;;;;;;;;;;5038100;28;20237;-89
2021/01/28 11:10:37;;;;;;;22.57;15.40;;;;;;;;;;5056395;28;20616;-89
2021/01/28 11:13:03;;;;;;;21.83;15.17;;;;;;;;;;5055877;28;20253;-88
2021/01/28 11:15:32;;;;;;;25.10;17.17;;;;;;;;;;5055860;28;20172;-89
2021/01/28 11:17:57;;;;;;;30.30;18.53;;;;;;;;;;5056577;28;20174;-89
2021/01/28 11:20:22;;;;;;;28.13;18.13;;;;;;;;;;5037882;28;20176;-88
2021/01/28 11:22:48;;;;;;;22.93;16.17;;;;;;;;;;5054741;28;20207;-88
2021/01/28 11:25:18;;;;;;;28.93;17.17;;;;;;;;;;5055176;28;20650;-87
2021/01/28 11:27:45;;;;;;;25.17;17.10;;;;;;;;;;5055563;28;20254;-87
2021/01/28 11:30:11;;;;;;;26.97;17.13;;;;;;;;;;5055898;28;20172;-86
2021/01/28 11:32:36;;;;;;;30.27;19.73;;;;;;;;;;5038144;28;20218;-86
2021/01/28 11:35:02;;;;;;;29.73;18.47;;;;;;;;;;5057053;28;20168;-87
2021/01/28 11:37:28;;;;;;;27.17;16.20;;;;;;;;;;5054799;28;20632;-89
2021/01/28 11:39:53;;;;;;;24.83;16.40;;;;;;;;;;5055074;28;20171;-87
2021/01/28 11:42:19;;;;;;;27.17;17.87;;;;;;;;;;5036872;28;20581;-87
2021/01/28 11:44:44;;;;;;;23.20;15.43;;;;;;;;;;5055647;28;20171;-87
2021/01/28 11:47:10;;;;;;;28.13;17.57;;;;;;;;;;5055705;28;20183;-87
2021/01/28 11:49:35;;;;;;;30.10;18.10;;;;;;;;;;5055217;28;20176;-87
2021/01/28 11:52:00;;;;;;;26.17;16.17;;;;;;;;;;5055383;28;20168;-88
2021/01/28 11:54:27;;;;;;;35.30;21.73;;;;;;;;;;5055210;28;20252;-88
2021/01/28 11:56:52;;;;;;;39.30;23.03;;;;;;;;;;5055592;28;20183;-88
2021/01/28 11:59:17;;;;;;;35.00;22.07;;;;;;;;;;5055336;28;20521;-89
2021/01/28 12:01:43;;;;;;;30.67;18.83;;;;;;;;;;5037293;28;20242;-88
2021/01/28 12:04:08;;;;;;;23.60;15.37;;;;;;;;;;5037350;28;20180;-88
2021/01/28 12:06:33;;;;;;;33.50;20.00;;;;;;;;;;5055257;28;20179;-89
2021/01/28 12:08:59;;;;;;;24.97;16.30;;;;;;;;;;5037183;28;20191;-87
2021/01/28 12:11:25;;;;;;;31.13;19.27;;;;;;;;;;5048110;28;20639;-87
2021/01/28 12:13:51;;;;;;;33.10;19.97;;;;;;;;;;5038346;28;20756;-88
2021/01/28 12:16:17;;;;;;;32.57;19.73;;;;;;;;;;5020304;28;20188;-87
2021/01/28 12:18:42;;;;;;;28.77;19.60;;;;;;;;;;5036513;28;20176;-88
2021/01/28 12:21:07;;;;;;;25.10;16.20;;;;;;;;;;5054356;28;20641;-89
2021/01/28 12:23:33;;;;;;;24.73;16.13;;;;;;;;;;5036635;28;20176;-86
2021/01/28 12:25:58;;;;;;;26.37;17.20;;;;;;;;;;5036856;28;20263;-87
2021/01/28 12:28:24;;;;;;;24.17;15.77;;;;;;;;;;5055578;28;20176;-88
2021/01/28 12:30:50;;;;;;;26.93;17.50;;;;;;;;;;5054589;28;20183;-87
2021/01/28 12:33:15;;;;;;;28.17;17.43;;;;;;;;;;5054921;28;20180;-87
2021/01/28 12:35:40;;;;;;;25.00;16.77;;;;;;;;;;5053959;28;20174;-86
2021/01/28 12:38:06;;;;;;;29.63;20.13;;;;;;;;;;5054315;28;20164;-87
2021/01/28 12:40:31;;;;;;;31.13;18.53;;;;;;;;;;5054365;28;20180;-87
2021/01/28 12:42:57;;;;;;;29.27;18.50;;;;;;;;;;5054451;28;20302;-88
2021/01/28 12:45:23;;;;;;;29.33;18.53;;;;;;;;;;5053563;28;20191;-87
2021/01/28 12:47:48;;;;;;;26.80;18.10;;;;;;;;;;5053034;28;20183;-87
2021/01/28 12:50:14;;;;;;;26.87;18.20;;;;;;;;;;5052679;28;20176;-87
2021/01/28 12:52:43;;;;;;;31.23;20.60;;;;;;;;;;5060764;28;20180;-88
2021/01/28 12:55:09;;;;;;;29.57;19.47;;;;;;;;;;5038346;28;20187;-88
2021/01/28 12:57:35;;;;;;;30.87;20.00;;;;;;;;;;5052703;28;20520;-88
2021/01/28 13:00:01;;;;;;;32.07;19.27;;;;;;;;;;5053386;28;20172;-88
2021/01/28 13:02:26;;;;;;;29.70;19.63;;;;;;;;;;5052617;28;20613;-88
2021/01/28 13:04:51;;;;;;;28.93;19.93;;;;;;;;;;5053611;28;20175;-87
2021/01/28 13:07:17;;;;;;;31.37;20.53;;;;;;;;;;5054542;28;20171;-87
2021/01/28 13:09:42;;;;;;;31.50;21.27;;;;;;;;;;5036000;28;20230;-87
2021/01/28 13:12:07;;;;;;;33.10;22.83;;;;;;;;;;5054048;28;20187;-87
2021/01/28 13:14:33;;;;;;;37.00;23.37;;;;;;;;;;5054327;28;20217;-88
2021/01/28 13:16:58;;;;;;;36.90;23.70;;;;;;;;;;5054101;28;20524;-88
2021/01/28 13:19:23;;;;;;;37.37;22.50;;;;;;;;;;5053160;28;20322;-88
2021/01/28 13:21:49;;;;;;;34.40;22.07;;;;;;;;;;5054430;28;20349;-88
2021/01/28 13:24:15;;;;;;;30.90;21.23;;;;;;;;;;5052405;28;20571;-87
2021/01/28 13:26:41;;;;;;;41.77;25.20;;;;;;;;;;5051840;28;20227;-87
2021/01/28 13:29:06;;;;;;;32.70;21.07;;;;;;;;;;5053564;28;20203;-86
2021/01/28 13:31:32;;;;;;;32.13;21.23;;;;;;;;;;5035930;28;20188;-87
2021/01/28 13:33:58;;;;;;;31.33;20.53;;;;;;;;;;5053469;28;20174;-87
2021/01/28 13:36:23;;;;;;;37.30;21.50;;;;;;;;;;5053370;28;20168;-87
2021/01/28 13:38:48;;;;;;;36.27;23.20;;;;;;;;;;5053458;28;20623;-87
2021/01/28 13:41:14;;;;;;;37.77;24.03;;;;;;;;;;5052456;28;20298;-88
2021/01/28 13:43:41;;;;;;;32.93;20.20;;;;;;;;;;5053093;28;20184;-87
2021/01/28 13:46:06;;;;;;;32.33;21.10;;;;;;;;;;5052868;28;20168;-87
2021/01/28 13:48:31;;;;;;;28.93;19.07;;;;;;;;;;5053800;28;20176;-87
2021/01/28 13:50:57;;;;;;;31.37;20.33;;;;;;;;;;5052474;28;20264;-86
2021/01/28 13:53:22;;;;;;;33.57;20.03;;;;;;;;;;5053699;28;20172;-87
2021/01/28 13:55:49;;;;;;;32.97;20.47;;;;;;;;;;5052851;28;20183;-87
2021/01/28 13:58:15;;;;;;;33.60;19.43;;;;;;;;;;5053184;28;20225;-87
2021/01/28 14:00:40;;;;;;;45.37;25.97;;;;;;;;;;5052283;28;20188;-86
2021/01/28 14:03:05;;;;;;;37.23;21.63;;;;;;;;;;5053187;28;20203;-86
2021/01/28 14:05:31;;;;;;;41.83;22.33;;;;;;;;;;5034222;28;20616;-86
2021/01/28 14:07:56;;;;;;;56.37;26.13;;;;;;;;;;5052787;28;20620;-86
2021/01/28 14:10:23;;;;;;;33.43;19.90;;;;;;;;;;5052071;28;20707;-86
2021/01/28 14:12:49;;;;;;;41.23;22.40;;;;;;;;;;5052027;28;20191;-86
2021/01/28 14:15:15;;;;;;;42.90;23.30;;;;;;;;;;5052160;28;20608;-86
2021/01/28 14:17:41;;;;;;;37.93;22.80;;;;;;;;;;5052083;28;20179;-86
2021/01/28 14:20:06;;;;;;;30.33;19.87;;;;;;;;;;5052431;28;20168;-87